createdAt,value
2022-10-13T00:01:24.797Z,100.00
2022-10-13T00:04:36.671Z,100.00
2022-10-13T00:07:48.343Z,100.00
2022-10-13T00:11:00.398Z,100.00
2022-10-13T00:14:13.516Z,100.00
2022-10-13T00:17:25.123Z,100.00
2022-10-13T00:20:36.909Z,100.00
2022-10-13T00:23:49.369Z,100.00
2022-10-13T00:27:03.322Z,100.00
2022-10-13T00:30:17.095Z,100.00
2022-10-13T00:33:29.111Z,100.00
2022-10-13T00:36:40.982Z,100.00
2022-10-13T00:39:52.695Z,100.00
2022-10-13T00:43:06.367Z,100.00
2022-10-13T00:46:18.082Z,100.00
2022-10-13T00:49:30.102Z,100.00
2022-10-13T00:52:42.844Z,100.00
2022-10-13T00:55:56.974Z,100.00
2022-10-13T00:59:10.506Z,100.00
2022-10-13T01:02:24.234Z,100.00
2022-10-13T01:05:38.989Z,100.00
2022-10-13T01:08:50.779Z,100.00
2022-10-13T01:12:11.679Z,100.00
2022-10-13T01:15:30.306Z,100.00
2022-10-13T01:18:48.421Z,100.00
2022-10-13T01:22:09.974Z,100.00
2022-10-13T01:25:33.367Z,100.00
2022-10-13T01:29:05.277Z,100.00
2022-10-13T01:32:22.747Z,100.00
2022-10-13T01:35:53.354Z,100.00
2022-10-13T01:39:10.220Z,100.00
2022-10-13T01:42:26.861Z,100.00
2022-10-13T01:45:43.041Z,100.00
2022-10-13T01:48:59.876Z,100.00
2022-10-13T01:52:18.129Z,100.00
2022-10-13T01:55:32.000Z,100.00
2022-10-13T01:58:44.814Z,100.00
2022-10-13T02:02:07.042Z,100.00
2022-10-13T02:05:26.450Z,100.00
2022-10-13T02:08:43.522Z,100.00
2022-10-13T02:11:58.234Z,100.00
2022-10-13T02:15:16.927Z,100.00
2022-10-13T02:18:33.952Z,100.00
2022-10-13T02:21:43.923Z,100.00
2022-10-13T02:24:56.402Z,100.00
2022-10-13T02:28:10.033Z,100.00
2022-10-13T02:31:23.573Z,100.00
2022-10-13T02:34:35.272Z,100.00
2022-10-13T02:37:46.964Z,100.00
2022-10-13T02:40:58.818Z,100.00
2022-10-13T02:44:11.408Z,100.00
2022-10-13T02:47:26.125Z,100.00
2022-10-13T02:50:37.968Z,100.00
2022-10-13T02:53:49.624Z,100.00
2022-10-13T02:57:01.250Z,100.00
2022-10-13T03:00:16.860Z,100.00
2022-10-13T03:03:28.531Z,100.00
2022-10-13T03:06:40.766Z,100.00
2022-10-13T03:09:52.598Z,100.00
2022-10-13T03:13:04.848Z,100.00
2022-10-13T03:16:16.785Z,100.00
2022-10-13T03:19:28.725Z,100.00
2022-10-13T03:22:40.977Z,100.00
2022-10-13T03:25:52.655Z,100.00
2022-10-13T03:29:04.328Z,100.00
2022-10-13T03:32:16.539Z,100.00
2022-10-13T03:35:28.393Z,100.00
2022-10-13T03:38:41.178Z,100.00
2022-10-13T03:41:53.159Z,100.00
2022-10-13T03:45:04.829Z,100.00
2022-10-13T03:48:18.406Z,100.00
2022-10-13T03:51:30.355Z,100.00
2022-10-13T03:54:41.995Z,100.00
2022-10-13T03:57:53.634Z,100.00
2022-10-13T04:01:09.976Z,100.00
2022-10-13T04:04:22.000Z,100.00
2022-10-13T04:07:34.822Z,100.00
2022-10-13T04:10:48.952Z,100.00
2022-10-13T04:14:01.457Z,100.00
2022-10-13T04:17:13.278Z,100.00
2022-10-13T04:20:25.105Z,100.00
2022-10-13T04:23:38.166Z,100.00
2022-10-13T04:26:50.513Z,100.00
2022-10-13T04:30:02.432Z,100.00
2022-10-13T04:33:14.535Z,100.00
2022-10-13T04:36:27.094Z,100.00
2022-10-13T04:39:39.143Z,100.00
2022-10-13T04:42:51.035Z,100.00
2022-10-13T04:46:08.249Z,100.00
2022-10-13T05:04:40.384Z,100.00
2022-10-13T05:07:52.256Z,100.00
2022-10-13T05:11:06.831Z,100.00
2022-10-13T05:14:21.507Z,100.00
2022-10-13T05:17:35.791Z,100.00
2022-10-13T05:20:50.183Z,100.00
2022-10-13T05:24:05.372Z,100.00
2022-10-13T05:27:20.339Z,100.00
2022-10-13T05:30:32.320Z,100.00
2022-10-13T05:33:46.065Z,100.00
2022-10-13T05:36:59.723Z,100.00
2022-10-13T05:40:15.451Z,100.00
2022-10-13T05:43:27.218Z,100.00
2022-10-13T05:46:39.890Z,100.00
2022-10-13T05:49:51.669Z,100.00
2022-10-13T05:53:04.385Z,100.00
2022-10-13T05:56:20.362Z,100.00
2022-10-13T05:59:33.642Z,100.00
2022-10-13T06:02:50.949Z,100.00
2022-10-13T06:06:03.856Z,100.00
2022-10-13T06:09:16.173Z,100.00
2022-10-13T06:12:28.797Z,100.00
2022-10-13T06:15:40.808Z,100.00
2022-10-13T06:18:53.531Z,100.00
2022-10-13T06:22:05.464Z,100.00
2022-10-13T06:25:17.972Z,100.00
2022-10-13T06:28:31.127Z,100.00
2022-10-13T06:31:42.869Z,100.00
2022-10-13T06:34:54.718Z,100.00
2022-10-13T06:38:06.354Z,100.00
2022-10-13T06:41:19.226Z,100.00
2022-10-13T06:44:31.175Z,100.00
2022-10-13T06:47:44.678Z,100.00
2022-10-13T06:50:56.929Z,100.00
2022-10-13T06:54:08.642Z,100.00
2022-10-13T06:57:20.365Z,100.00
2022-10-13T07:00:32.004Z,100.00
2022-10-13T07:03:43.843Z,100.00
2022-10-13T07:06:55.604Z,100.00
2022-10-13T07:10:09.521Z,100.00
2022-10-13T07:16:34.145Z,100.00
2022-10-13T07:19:48.705Z,100.00
2022-10-13T07:23:01.714Z,100.00
2022-10-13T07:26:17.662Z,100.00
2022-10-13T07:29:29.396Z,100.00
2022-10-13T07:32:42.404Z,100.00
2022-10-13T07:35:54.250Z,100.00
2022-10-13T07:39:06.913Z,100.00
2022-10-13T07:42:19.144Z,100.00
2022-10-13T07:45:31.349Z,100.00
2022-10-13T07:48:43.773Z,100.00
2022-10-13T07:51:55.992Z,100.00
2022-10-13T07:55:07.993Z,100.00
2022-10-13T07:58:19.659Z,100.00
2022-10-13T08:01:32.460Z,100.00
2022-10-13T08:04:44.679Z,100.00
2022-10-13T08:07:58.458Z,100.00
2022-10-13T08:11:16.190Z,100.00
2022-10-13T08:14:27.517Z,100.00
2022-10-13T08:17:39.966Z,100.00
2022-10-13T08:20:59.254Z,100.00
2022-10-13T08:24:06.294Z,100.00
2022-10-13T08:27:22.425Z,99.78
2022-10-13T08:30:34.495Z,95.87
2022-10-13T08:33:47.613Z,92.10
2022-10-13T08:37:01.086Z,90.70
2022-10-13T08:40:18.619Z,86.97
2022-10-13T08:43:32.123Z,83.00
2022-10-13T08:46:51.039Z,83.38
2022-10-13T08:50:04.337Z,82.31
2022-10-13T08:53:25.643Z,80.21
2022-10-13T08:56:40.443Z,78.67
2022-10-13T08:59:52.361Z,77.69
2022-10-13T09:03:11.924Z,77.20
2022-10-13T09:06:31.870Z,77.05
2022-10-13T09:09:44.315Z,76.39
2022-10-13T09:12:57.007Z,76.04
2022-10-13T09:16:09.347Z,74.67
2022-10-13T09:19:33.375Z,76.42
2022-10-13T09:22:46.146Z,77.83
2022-10-13T09:26:01.454Z,79.93
2022-10-13T09:29:22.131Z,80.21
2022-10-13T09:32:34.551Z,79.50
2022-10-13T09:35:50.356Z,78.34
2022-10-13T09:39:20.223Z,77.84
2022-10-13T09:42:34.961Z,76.30
2022-10-13T09:45:49.792Z,76.60
2022-10-13T09:49:07.075Z,78.02
2022-10-13T09:52:27.788Z,78.17
2022-10-13T09:55:41.948Z,79.95
2022-10-13T09:59:02.671Z,79.10
2022-10-13T10:02:31.411Z,81.57
2022-10-13T10:05:51.753Z,82.03
2022-10-13T10:09:10.146Z,80.97
2022-10-13T10:12:27.954Z,80.87
2022-10-13T10:15:49.647Z,81.46
2022-10-13T10:19:09.896Z,81.50
2022-10-13T10:22:29.716Z,80.73
2022-10-13T10:25:45.802Z,79.70
2022-10-13T10:29:26.922Z,81.51
2022-10-13T10:32:47.142Z,79.22
2022-10-13T10:36:06.039Z,79.61
2022-10-13T10:39:25.266Z,78.39
2022-10-13T10:42:52.454Z,75.93
2022-10-13T10:46:03.851Z,72.88
2022-10-13T10:49:24.399Z,74.24
2022-10-13T10:52:41.712Z,70.78
2022-10-13T10:55:59.732Z,70.91
2022-10-13T10:59:30.136Z,72.14
2022-10-13T11:02:56.325Z,71.50
2022-10-13T11:06:20.631Z,70.57
2022-10-13T11:10:07.164Z,70.64
2022-10-13T11:13:26.192Z,69.54
2022-10-13T11:16:43.467Z,69.35
2022-10-13T11:19:59.353Z,68.04
2022-10-13T11:23:38.027Z,68.68
2022-10-13T11:26:51.144Z,68.50
2022-10-13T11:30:06.726Z,68.31
2022-10-13T11:34:00.127Z,68.03
2022-10-13T11:37:23.209Z,67.68
2022-10-13T11:40:43.226Z,66.17
2022-10-13T11:44:00.799Z,65.59
2022-10-13T11:47:19.846Z,66.26
2022-10-13T11:50:39.991Z,64.52
2022-10-13T11:54:00.230Z,67.58
2022-10-13T11:57:28.357Z,64.46
2022-10-13T12:00:41.884Z,64.74
2022-10-13T12:03:54.677Z,65.84
2022-10-13T12:07:11.732Z,64.35
2022-10-13T12:10:29.868Z,66.04
2022-10-13T12:13:43.784Z,65.68
2022-10-13T12:17:03.100Z,65.19
2022-10-13T12:20:30.755Z,66.52
2022-10-13T12:23:41.239Z,68.09
2022-10-13T12:26:53.310Z,67.07
2022-10-13T12:30:07.678Z,68.04
2022-10-13T12:33:32.518Z,67.08
2022-10-13T12:36:44.506Z,66.81
2022-10-13T12:39:56.752Z,66.38
2022-10-13T12:43:11.905Z,66.40
2022-10-13T12:46:44.866Z,67.19
2022-10-13T12:49:56.772Z,65.52
2022-10-13T12:53:25.652Z,67.26
2022-10-13T12:56:39.363Z,66.13
2022-10-13T12:59:52.580Z,66.66
2022-10-13T13:03:06.897Z,64.13
2022-10-13T13:06:37.310Z,64.52
2022-10-13T13:09:51.076Z,64.78
2022-10-13T13:13:25.679Z,64.02
2022-10-13T13:16:37.389Z,65.15
2022-10-13T13:19:53.161Z,67.22
2022-10-13T13:23:05.722Z,65.03
2022-10-13T13:26:23.811Z,64.96
2022-10-13T13:29:35.408Z,65.73
2022-10-13T13:32:47.335Z,66.07
2022-10-13T13:35:59.388Z,65.03
2022-10-13T13:39:13.477Z,66.26
2022-10-13T13:42:27.249Z,66.98
2022-10-13T13:45:39.510Z,67.04
2022-10-13T13:48:51.926Z,67.30
2022-10-13T13:52:03.744Z,67.51
2022-10-13T13:55:25.056Z,69.50
2022-10-13T13:58:36.773Z,69.27
2022-10-13T14:01:48.542Z,71.10
2022-10-13T14:05:00.487Z,70.33
2022-10-13T14:08:14.030Z,71.66
2022-10-13T14:11:26.276Z,72.71
2022-10-13T14:14:39.196Z,73.74
2022-10-13T14:17:53.037Z,77.54
2022-10-13T14:21:08.448Z,74.56
2022-10-13T14:24:20.420Z,75.79
2022-10-13T14:27:34.134Z,77.29
2022-10-13T14:30:49.344Z,78.48
2022-10-13T14:34:01.510Z,78.18
2022-10-13T14:37:15.229Z,80.51
2022-10-13T14:40:27.372Z,77.70
2022-10-13T14:43:41.498Z,79.29
2022-10-13T14:46:53.295Z,81.76
2022-10-13T14:50:05.182Z,82.68
2022-10-13T14:53:18.003Z,82.18
2022-10-13T14:56:31.975Z,84.70
2022-10-13T14:59:43.633Z,83.44
2022-10-13T15:02:55.362Z,83.42
2022-10-13T15:06:07.837Z,85.47
2022-10-13T15:09:21.099Z,84.36
2022-10-13T15:12:33.255Z,84.54
2022-10-13T15:15:51.604Z,84.37
2022-10-13T15:19:03.956Z,84.26
2022-10-13T15:22:15.775Z,83.89
2022-10-13T15:25:27.367Z,84.45
2022-10-13T15:28:43.324Z,86.73
2022-10-13T15:31:55.250Z,87.31
2022-10-13T15:35:06.958Z,90.78
2022-10-13T15:38:18.795Z,90.68
2022-10-13T15:41:30.486Z,91.05
2022-10-13T15:45:09.529Z,88.71
2022-10-13T15:47:58.120Z,90.34
2022-10-13T15:51:14.279Z,92.73
2022-10-13T15:54:28.252Z,91.91
2022-10-13T15:57:39.886Z,93.06
2022-10-13T16:00:52.136Z,94.17
2022-10-13T16:04:04.015Z,94.95
2022-10-13T16:07:16.218Z,94.42
2022-10-13T16:10:28.204Z,94.42
2022-10-13T16:13:45.556Z,95.40
2022-10-13T16:16:59.148Z,96.43
2022-10-13T16:20:13.437Z,96.00
2022-10-13T16:23:25.121Z,95.31
2022-10-13T16:26:36.743Z,95.86
2022-10-13T16:29:48.441Z,96.45
2022-10-13T16:33:00.113Z,100.00
2022-10-13T16:36:15.430Z,99.84
2022-10-13T16:39:28.537Z,99.86
2022-10-13T16:42:41.823Z,99.01
2022-10-13T16:46:02.950Z,99.29
2022-10-13T16:49:15.651Z,100.00
2022-10-13T16:56:44.705Z,100.00
2022-10-13T16:59:58.950Z,100.00
2022-10-13T17:03:14.491Z,100.00
2022-10-13T17:06:29.043Z,100.00
2022-10-13T17:09:40.997Z,100.00
2022-10-13T17:12:52.996Z,100.00
2022-10-13T17:16:05.742Z,100.00
2022-10-13T17:19:18.100Z,100.00
2022-10-13T17:22:30.022Z,100.00
2022-10-13T17:25:42.982Z,100.00
2022-10-13T17:28:55.431Z,100.00
2022-10-13T17:32:07.330Z,100.00
2022-10-13T17:35:19.567Z,100.00
2022-10-13T17:38:31.712Z,100.00
2022-10-13T17:41:43.851Z,100.00
2022-10-13T17:44:57.589Z,100.00
2022-10-13T17:48:12.998Z,100.00
2022-10-13T17:51:25.910Z,100.00
2022-10-13T17:54:37.992Z,100.00
2022-10-13T17:57:49.884Z,100.00
2022-10-13T18:01:14.380Z,100.00
2022-10-13T18:04:23.613Z,100.00
2022-10-13T18:11:53.775Z,100.00
2022-10-13T18:15:05.708Z,100.00
2022-10-13T18:18:17.635Z,100.00
2022-10-13T18:21:30.959Z,100.00
2022-10-13T18:24:42.918Z,100.00
2022-10-13T18:27:54.827Z,100.00
2022-10-13T18:31:16.127Z,100.00
2022-10-13T18:34:28.129Z,100.00
2022-10-13T18:37:40.148Z,100.00
2022-10-13T18:40:51.921Z,100.00
2022-10-13T18:44:03.959Z,100.00
2022-10-13T18:47:15.994Z,100.00
2022-10-13T18:50:27.921Z,100.00
2022-10-13T18:53:40.639Z,100.00
2022-10-13T18:56:52.826Z,100.00
2022-10-13T19:00:06.199Z,100.00
2022-10-13T19:03:17.923Z,100.00
2022-10-13T19:06:32.883Z,100.00
2022-10-13T19:09:44.644Z,100.00
2022-10-13T19:12:56.797Z,100.00
2022-10-13T19:16:11.363Z,100.00
2022-10-13T19:19:23.277Z,100.00
2022-10-13T19:22:36.967Z,100.00
2022-10-13T19:25:50.968Z,100.00
2022-10-13T19:29:05.781Z,100.00
2022-10-13T19:32:18.100Z,100.00
2022-10-13T19:35:30.135Z,100.00
2022-10-13T19:38:42.413Z,100.00
2022-10-13T19:41:56.033Z,100.00
2022-10-13T19:45:10.988Z,100.00
2022-10-13T19:48:23.185Z,100.00
2022-10-13T19:51:35.121Z,100.00
2022-10-13T19:54:47.115Z,100.00
2022-10-13T19:57:58.829Z,100.00
2022-10-13T20:01:12.668Z,100.00
2022-10-13T20:04:25.440Z,100.00
2022-10-13T20:07:37.108Z,100.00
2022-10-13T20:10:51.167Z,100.00
2022-10-13T20:14:03.071Z,100.00
2022-10-13T20:17:14.945Z,100.00
2022-10-13T20:20:26.772Z,100.00
2022-10-13T20:23:40.684Z,100.00
2022-10-13T20:26:52.612Z,100.00
2022-10-13T20:30:06.615Z,100.00
2022-10-13T20:33:18.377Z,100.00
2022-10-13T20:36:37.480Z,100.00
2022-10-13T20:39:46.628Z,100.00
2022-10-13T20:43:00.104Z,100.00
2022-10-13T20:46:13.887Z,100.00
2022-10-13T20:49:29.245Z,100.00
2022-10-13T20:52:41.490Z,100.00
2022-10-13T20:56:02.415Z,100.00
2022-10-13T20:59:18.620Z,100.00
2022-10-13T21:02:30.297Z,100.00
2022-10-13T21:05:42.087Z,100.00
2022-10-13T21:08:54.393Z,100.00
2022-10-13T21:12:06.146Z,100.00
2022-10-13T21:15:18.810Z,100.00
2022-10-13T21:18:30.784Z,100.00
2022-10-13T21:21:43.040Z,100.00
2022-10-13T21:24:54.953Z,100.00
2022-10-13T21:28:07.377Z,100.00
2022-10-13T21:31:21.876Z,100.00
2022-10-13T21:34:33.971Z,100.00
2022-10-13T21:37:46.653Z,100.00
2022-10-13T21:40:59.501Z,100.00
2022-10-13T21:44:11.727Z,100.00
2022-10-13T21:47:23.646Z,100.00
2022-10-13T21:50:36.683Z,100.00
2022-10-13T21:53:50.996Z,100.00
2022-10-13T21:57:02.964Z,100.00
2022-10-13T22:00:22.052Z,100.00
2022-10-13T22:03:34.751Z,100.00
2022-10-13T22:06:46.901Z,100.00
2022-10-13T22:09:58.595Z,100.00
2022-10-13T22:13:10.249Z,100.00
2022-10-13T22:16:24.986Z,100.00
2022-10-13T22:19:36.907Z,100.00
2022-10-13T22:22:48.606Z,100.00
2022-10-13T22:26:00.319Z,100.00
2022-10-13T22:29:14.494Z,100.00
2022-10-13T22:32:27.717Z,100.00
2022-10-13T22:35:41.134Z,100.00
2022-10-13T22:38:54.990Z,100.00
2022-10-13T22:42:06.913Z,100.00
2022-10-13T22:45:19.562Z,100.00
2022-10-13T22:48:31.425Z,100.00
2022-10-13T22:51:43.860Z,100.00
2022-10-13T22:54:55.983Z,100.00
2022-10-13T22:58:07.729Z,100.00
2022-10-13T23:01:21.297Z,100.00
2022-10-13T23:04:33.748Z,100.00
2022-10-13T23:07:45.667Z,100.00
2022-10-13T23:10:57.605Z,100.00
2022-10-13T23:14:10.053Z,100.00
2022-10-13T23:17:22.468Z,100.00
2022-10-13T23:20:36.137Z,100.00
2022-10-13T23:23:48.960Z,100.00
2022-10-13T23:27:01.407Z,100.00
2022-10-13T23:30:17.890Z,100.00
2022-10-13T23:33:29.613Z,100.00
2022-10-13T23:36:41.353Z,100.00
2022-10-13T23:39:53.373Z,100.00
2022-10-13T23:43:05.163Z,100.00
2022-10-13T23:46:17.279Z,100.00
2022-10-13T23:49:29.145Z,100.00
2022-10-13T23:52:41.277Z,100.00
2022-10-13T23:55:53.543Z,100.00
2022-10-13T23:59:08.223Z,100.00
